Vinh Hung — XVFL — position and weather

sailwx.info

Track history (hours):
 
Tides and Currents Weather Stations Pressure Air Temp Water Temp Dewpoint Dewpoint Depression Visibility Wind Speed Wind Dir Waves Ship Positions

Vinh Hung

Last reported at 2017-Feb-19 21:32 UTC. Time now 2017-Apr-25 06:30 UTC.
Position N 21°01' E 110°48'.
Warning: this ship's position is months out of date.

Length 103 m; draft 7.3 m.

Type: Cargo ship. MMSI: 574206000.

Date/timePositionNaut miles runAvg speedWind from/ knotsBaromVisibWave heightAir tempDewpointWater temp
2017-Feb-19 21:32N 21°01' E 110°48'8 8.2
2017-Feb-19 20:32N 21°03' E 110°39'8 8.2
2017-Feb-19 19:34N 21°05' E 110°31'7 7.2
2017-Feb-19 18:34N 21°09' E 110°25'2 1.4
2017-Feb-19 17:29N 21°10' E 110°24'0 0.0
2017-Feb-19 16:26N 21°10' E 110°24'0 0.0
2017-Feb-19 15:32N 21°10' E 110°24'0 0.0
2017-Feb-19 14:29N 21°10' E 110°24'0 0.0
2017-Feb-19 13:20N 21°10' E 110°24'0 0.0
2017-Feb-19 12:32N 21°10' E 110°24'0 0.0
2017-Feb-19 11:23N 21°10' E 110°24'0 0.0
2017-Feb-19 10:32N 21°10' E 110°24'0 0.0
2017-Feb-19 09:23N 21°10' E 110°24'0 0.0
2017-Feb-19 08:29N 21°10' E 110°24'0 0.0
2017-Feb-19 07:32N 21°10' E 110°24'0 0.0
2017-Feb-19 06:26N 21°10' E 110°24'0 0.0
2017-Feb-19 05:32N 21°10' E 110°24'0 0.0
2017-Feb-19 04:32N 21°10' E 110°24'0 0.0
2017-Feb-19 03:26N 21°10' E 110°24'0 0.0
2017-Feb-19 02:26N 21°10' E 110°24'0 0.0
2017-Feb-19 01:32N 21°10' E 110°24'0 0.0
2017-Feb-19 00:32N 21°10' E 110°24'0 0.0
2017-Feb-18 23:29N 21°10' E 110°24'0 0.0
2017-Feb-18 22:32N 21°10' E 110°24'0 0.0
2017-Feb-18 21:29N 21°10' E 110°24'0 0.0
2017-Feb-18 20:29N 21°10' E 110°24'0 0.0
2017-Feb-18 19:29N 21°10' E 110°24'0 0.0
2017-Feb-18 18:32N 21°10' E 110°24'0 0.0
2017-Feb-18 17:32N 21°10' E 110°24'0 0.0
2017-Feb-18 16:32N 21°10' E 110°24'0 0.0
2017-Feb-18 15:32N 21°10' E 110°24'0 0.0
2017-Feb-18 14:26N 21°10' E 110°24'0 0.0
2017-Feb-18 13:32N 21°10' E 110°24'0 0.0
2017-Feb-18 12:26N 21°10' E 110°24'0 0.0
2017-Feb-18 11:14N 21°10' E 110°24'0 0.0
2017-Feb-18 10:11N 21°10' E 110°24'0 0.0
2017-Feb-18 09:05N 21°10' E 110°24'0 0.0
2017-Feb-18 08:11N 21°10' E 110°24'0 0.0
2017-Feb-18 07:26N 21°10' E 110°24'0 0.0
2017-Feb-18 06:33N 21°10' E 110°24'0 0.0
2017-Feb-18 05:33N 21°10' E 110°24'0 0.1
2017-Feb-18 04:33N 21°10' E 110°24'7 7.0
2017-Feb-18 03:33N 21°05' E 110°29'7 7.4
2017-Feb-18 02:33N 21°03' E 110°37'4 4.0
2017-Feb-18 01:33N 21°03' E 110°41'0 0.1
2017-Feb-18 00:33N 21°03' E 110°41'0 0.0
2017-Feb-17 23:33N 21°03' E 110°41'0 0.0
2017-Feb-17 22:33N 21°03' E 110°41'0 0.0
2017-Feb-17 21:33N 21°03' E 110°41'0 0.5
2017-Feb-17 20:33N 21°03' E 110°41'7 7.3
2017-Feb-17 19:33N 21°02' E 110°49'4 1.3
2017-Feb-17 16:30N 20°60' E 110°52'  
Track history (hours):
 
Tides and Currents Weather Stations Pressure Air Temp Water Temp Dewpoint Dewpoint Depression Visibility Wind Speed Wind Dir Waves Ship Positions

Vinh Hung

Last reported at 2017-Feb-19 21:32 UTC. Time now 2017-Apr-25 06:30 UTC.
Position N 21°01' E 110°48'.
Warning: this ship's position is months out of date.

Length 103 m; draft 7.3 m.

Type: Cargo ship. MMSI: 574206000.

Date/timePositionNaut miles runAvg speedWind from/ knotsBaromVisibWave heightAir tempDewpointWater temp
2017-Feb-19 21:32N 21°01' E 110°48'8 8.2
2017-Feb-19 20:32N 21°03' E 110°39'8 8.2
2017-Feb-19 19:34N 21°05' E 110°31'7 7.2
2017-Feb-19 18:34N 21°09' E 110°25'2 1.4
2017-Feb-19 17:29N 21°10' E 110°24'0 0.0
2017-Feb-19 16:26N 21°10' E 110°24'0 0.0
2017-Feb-19 15:32N 21°10' E 110°24'0 0.0
2017-Feb-19 14:29N 21°10' E 110°24'0 0.0
2017-Feb-19 13:20N 21°10' E 110°24'0 0.0
2017-Feb-19 12:32N 21°10' E 110°24'0 0.0
2017-Feb-19 11:23N 21°10' E 110°24'0 0.0
2017-Feb-19 10:32N 21°10' E 110°24'0 0.0
2017-Feb-19 09:23N 21°10' E 110°24'0 0.0
2017-Feb-19 08:29N 21°10' E 110°24'0 0.0
2017-Feb-19 07:32N 21°10' E 110°24'0 0.0
2017-Feb-19 06:26N 21°10' E 110°24'0 0.0
2017-Feb-19 05:32N 21°10' E 110°24'0 0.0
2017-Feb-19 04:32N 21°10' E 110°24'0 0.0
2017-Feb-19 03:26N 21°10' E 110°24'0 0.0
2017-Feb-19 02:26N 21°10' E 110°24'0 0.0
2017-Feb-19 01:32N 21°10' E 110°24'0 0.0
2017-Feb-19 00:32N 21°10' E 110°24'0 0.0
2017-Feb-18 23:29N 21°10' E 110°24'0 0.0
2017-Feb-18 22:32N 21°10' E 110°24'0 0.0
2017-Feb-18 21:29N 21°10' E 110°24'0 0.0
2017-Feb-18 20:29N 21°10' E 110°24'0 0.0
2017-Feb-18 19:29N 21°10' E 110°24'0 0.0
2017-Feb-18 18:32N 21°10' E 110°24'0 0.0
2017-Feb-18 17:32N 21°10' E 110°24'0 0.0
2017-Feb-18 16:32N 21°10' E 110°24'0 0.0
2017-Feb-18 15:32N 21°10' E 110°24'0 0.0
2017-Feb-18 14:26N 21°10' E 110°24'0 0.0
2017-Feb-18 13:32N 21°10' E 110°24'0 0.0
2017-Feb-18 12:26N 21°10' E 110°24'0 0.0
2017-Feb-18 11:14N 21°10' E 110°24'0 0.0
2017-Feb-18 10:11N 21°10' E 110°24'0 0.0
2017-Feb-18 09:05N 21°10' E 110°24'0 0.0
2017-Feb-18 08:11N 21°10' E 110°24'0 0.0
2017-Feb-18 07:26N 21°10' E 110°24'0 0.0
2017-Feb-18 06:33N 21°10' E 110°24'0 0.0
2017-Feb-18 05:33N 21°10' E 110°24'0 0.1
2017-Feb-18 04:33N 21°10' E 110°24'7 7.0
2017-Feb-18 03:33N 21°05' E 110°29'7 7.4
2017-Feb-18 02:33N 21°03' E 110°37'4 4.0
2017-Feb-18 01:33N 21°03' E 110°41'0 0.1
2017-Feb-18 00:33N 21°03' E 110°41'0 0.0
2017-Feb-17 23:33N 21°03' E 110°41'0 0.0
2017-Feb-17 22:33N 21°03' E 110°41'0 0.0
2017-Feb-17 21:33N 21°03' E 110°41'0 0.5
2017-Feb-17 20:33N 21°03' E 110°41'7 7.3
2017-Feb-17 19:33N 21°02' E 110°49'4 1.3
2017-Feb-17 16:30N 20°60' E 110°52'  

Dump ship's entire track history